sensor_id;sensor_type;location;lat;lon;timestamp;P1;durP1;ratioP1;P2;durP2;ratioP2
38611;SDS011;24368;52.156;20.788;2023-01-26T00:04:10;41.80;;;30.10;;
38611;SDS011;24368;52.156;20.788;2023-01-26T00:09:12;42.30;;;30.20;;
38611;SDS011;24368;52.156;20.788;2023-01-26T00:14:15;42.40;;;29.10;;
38611;SDS011;24368;52.156;20.788;2023-01-26T00:19:17;43.60;;;30.50;;
38611;SDS011;24368;52.156;20.788;2023-01-26T00:24:19;45.50;;;31.40;;
38611;SDS011;24368;52.156;20.788;2023-01-26T00:29:20;44.30;;;30.00;;
38611;SDS011;24368;52.156;20.788;2023-01-26T00:34:22;41.70;;;30.70;;
38611;SDS011;24368;52.156;20.788;2023-01-26T00:39:24;43.80;;;30.50;;
38611;SDS011;24368;52.156;20.788;2023-01-26T00:44:25;45.40;;;31.20;;
38611;SDS011;24368;52.156;20.788;2023-01-26T00:49:27;44.00;;;31.70;;
38611;SDS011;24368;52.156;20.788;2023-01-26T00:54:29;44.50;;;31.60;;
38611;SDS011;24368;52.156;20.788;2023-01-26T00:59:31;44.40;;;30.30;;
38611;SDS011;24368;52.156;20.788;2023-01-26T01:04:32;45.50;;;31.70;;
38611;SDS011;24368;52.156;20.788;2023-01-26T01:09:34;42.30;;;30.40;;
38611;SDS011;24368;52.156;20.788;2023-01-26T01:14:36;39.30;;;30.70;;
38611;SDS011;24368;52.156;20.788;2023-01-26T01:19:38;42.20;;;29.60;;
38611;SDS011;24368;52.156;20.788;2023-01-26T01:24:39;45.50;;;30.80;;
38611;SDS011;24368;52.156;20.788;2023-01-26T01:29:41;43.80;;;31.90;;
38611;SDS011;24368;52.156;20.788;2023-01-26T01:34:45;42.80;;;31.70;;
38611;SDS011;24368;52.156;20.788;2023-01-26T01:39:47;44.00;;;31.20;;
38611;SDS011;24368;52.156;20.788;2023-01-26T01:50:30;41.10;;;29.70;;
38611;SDS011;24368;52.156;20.788;2023-01-26T01:55:37;40.20;;;29.00;;
38611;SDS011;24368;52.156;20.788;2023-01-26T02:00:39;43.60;;;31.80;;
38611;SDS011;24368;52.156;20.788;2023-01-26T02:05:54;46.30;;;32.30;;
38611;SDS011;24368;52.156;20.788;2023-01-26T02:11:04;46.20;;;33.30;;
38611;SDS011;24368;52.156;20.788;2023-01-26T02:16:09;42.00;;;31.30;;
38611;SDS011;24368;52.156;20.788;2023-01-26T02:21:15;42.80;;;30.90;;
38611;SDS011;24368;52.156;20.788;2023-01-26T02:26:20;45.00;;;31.80;;
38611;SDS011;24368;52.156;20.788;2023-01-26T02:31:23;45.60;;;31.70;;
38611;SDS011;24368;52.156;20.788;2023-01-26T02:36:28;43.00;;;30.20;;
38611;SDS011;24368;52.156;20.788;2023-01-26T02:41:31;43.00;;;30.50;;
38611;SDS011;24368;52.156;20.788;2023-01-26T02:46:52;41.80;;;29.40;;
38611;SDS011;24368;52.156;20.788;2023-01-26T02:51:54;45.90;;;32.60;;
38611;SDS011;24368;52.156;20.788;2023-01-26T02:56:56;42.60;;;31.30;;
38611;SDS011;24368;52.156;20.788;2023-01-26T03:01:57;42.40;;;29.50;;
38611;SDS011;24368;52.156;20.788;2023-01-26T03:07:00;41.20;;;28.70;;
38611;SDS011;24368;52.156;20.788;2023-01-26T03:12:01;43.20;;;30.50;;
38611;SDS011;24368;52.156;20.788;2023-01-26T03:17:03;44.90;;;29.90;;
38611;SDS011;24368;52.156;20.788;2023-01-26T03:22:07;40.80;;;28.40;;
38611;SDS011;24368;52.156;20.788;2023-01-26T03:27:32;39.70;;;29.40;;
38611;SDS011;24368;52.156;20.788;2023-01-26T03:32:41;42.50;;;30.50;;
38611;SDS011;24368;52.156;20.788;2023-01-26T03:37:43;40.50;;;29.20;;
38611;SDS011;24368;52.156;20.788;2023-01-26T03:42:46;40.70;;;29.50;;
38611;SDS011;24368;52.156;20.788;2023-01-26T03:48:07;44.10;;;31.20;;
38611;SDS011;24368;52.156;20.788;2023-01-26T03:53:28;36.80;;;27.50;;
38611;SDS011;24368;52.156;20.788;2023-01-26T03:58:59;44.70;;;30.70;;
38611;SDS011;24368;52.156;20.788;2023-01-26T04:04:09;43.70;;;31.00;;
38611;SDS011;24368;52.156;20.788;2023-01-26T04:09:30;41.00;;;28.70;;
38611;SDS011;24368;52.156;20.788;2023-01-26T04:14:33;41.00;;;29.20;;
38611;SDS011;24368;52.156;20.788;2023-01-26T04:19:53;45.20;;;31.40;;
38611;SDS011;24368;52.156;20.788;2023-01-26T04:25:15;42.30;;;30.80;;
38611;SDS011;24368;52.156;20.788;2023-01-26T04:30:19;45.10;;;29.90;;
38611;SDS011;24368;52.156;20.788;2023-01-26T04:35:21;46.50;;;29.90;;
38611;SDS011;24368;52.156;20.788;2023-01-26T04:40:22;45.10;;;31.70;;
38611;SDS011;24368;52.156;20.788;2023-01-26T04:45:24;43.10;;;30.10;;
38611;SDS011;24368;52.156;20.788;2023-01-26T04:50:26;38.70;;;28.10;;
38611;SDS011;24368;52.156;20.788;2023-01-26T04:55:28;42.50;;;29.50;;
38611;SDS011;24368;52.156;20.788;2023-01-26T05:00:29;41.10;;;29.70;;
38611;SDS011;24368;52.156;20.788;2023-01-26T05:05:35;45.20;;;32.00;;
38611;SDS011;24368;52.156;20.788;2023-01-26T05:10:38;44.40;;;31.70;;
38611;SDS011;24368;52.156;20.788;2023-01-26T05:15:39;44.90;;;30.90;;
38611;SDS011;24368;52.156;20.788;2023-01-26T05:20:41;53.10;;;32.30;;
38611;SDS011;24368;52.156;20.788;2023-01-26T05:25:43;44.30;;;31.10;;
38611;SDS011;24368;52.156;20.788;2023-01-26T05:30:45;41.50;;;28.70;;
38611;SDS011;24368;52.156;20.788;2023-01-26T05:35:48;40.70;;;28.90;;
38611;SDS011;24368;52.156;20.788;2023-01-26T05:40:50;41.30;;;28.90;;
38611;SDS011;24368;52.156;20.788;2023-01-26T05:45:51;41.80;;;30.70;;
38611;SDS011;24368;52.156;20.788;2023-01-26T05:50:54;45.30;;;30.70;;
38611;SDS011;24368;52.156;20.788;2023-01-26T05:55:57;45.30;;;31.80;;
38611;SDS011;24368;52.156;20.788;2023-01-26T06:01:02;48.00;;;32.40;;
38611;SDS011;24368;52.156;20.788;2023-01-26T06:06:05;44.20;;;30.20;;
38611;SDS011;24368;52.156;20.788;2023-01-26T06:11:07;43.00;;;29.70;;
38611;SDS011;24368;52.156;20.788;2023-01-26T06:16:09;43.50;;;30.40;;
38611;SDS011;24368;52.156;20.788;2023-01-26T06:21:10;43.50;;;31.50;;
38611;SDS011;24368;52.156;20.788;2023-01-26T06:26:12;43.20;;;30.50;;
38611;SDS011;24368;52.156;20.788;2023-01-26T06:31:15;46.20;;;31.40;;
38611;SDS011;24368;52.156;20.788;2023-01-26T06:36:17;45.40;;;31.70;;
38611;SDS011;24368;52.156;20.788;2023-01-26T06:41:18;47.00;;;31.40;;
38611;SDS011;24368;52.156;20.788;2023-01-26T06:46:20;41.60;;;29.20;;
38611;SDS011;24368;52.156;20.788;2023-01-26T06:56:45;45.90;;;30.50;;
38611;SDS011;24368;52.156;20.788;2023-01-26T07:01:47;48.70;;;32.40;;
38611;SDS011;24368;52.156;20.788;2023-01-26T07:06:49;45.90;;;30.50;;
38611;SDS011;24368;52.156;20.788;2023-01-26T07:11:51;52.10;;;32.40;;
38611;SDS011;24368;52.156;20.788;2023-01-26T07:16:52;50.40;;;31.80;;
38611;SDS011;24368;52.156;20.788;2023-01-26T07:21:54;41.30;;;29.60;;
38611;SDS011;24368;52.156;20.788;2023-01-26T07:26:56;49.50;;;31.30;;
38611;SDS011;24368;52.156;20.788;2023-01-26T07:31:57;52.10;;;35.20;;
38611;SDS011;24368;52.156;20.788;2023-01-26T07:36:59;47.40;;;33.60;;
38611;SDS011;24368;52.156;20.788;2023-01-26T07:42:01;54.90;;;33.90;;
38611;SDS011;24368;52.156;20.788;2023-01-26T07:47:02;52.00;;;32.20;;
38611;SDS011;24368;52.156;20.788;2023-01-26T07:52:04;52.00;;;34.90;;
38611;SDS011;24368;52.156;20.788;2023-01-26T07:57:06;45.10;;;29.50;;
38611;SDS011;24368;52.156;20.788;2023-01-26T08:02:08;40.20;;;27.80;;
38611;SDS011;24368;52.156;20.788;2023-01-26T08:07:10;42.90;;;28.90;;
38611;SDS011;24368;52.156;20.788;2023-01-26T08:12:12;34.60;;;25.00;;
38611;SDS011;24368;52.156;20.788;2023-01-26T08:17:14;36.80;;;25.40;;
38611;SDS011;24368;52.156;20.788;2023-01-26T08:22:17;39.40;;;26.20;;
38611;SDS011;24368;52.156;20.788;2023-01-26T08:27:19;29.50;;;20.80;;
38611;SDS011;24368;52.156;20.788;2023-01-26T08:32:21;28.60;;;21.30;;
38611;SDS011;24368;52.156;20.788;2023-01-26T08:37:22;32.90;;;22.50;;
38611;SDS011;24368;52.156;20.788;2023-01-26T08:42:24;25.40;;;19.50;;
38611;SDS011;24368;52.156;20.788;2023-01-26T08:47:26;25.70;;;19.10;;
38611;SDS011;24368;52.156;20.788;2023-01-26T08:52:27;27.20;;;19.00;;
38611;SDS011;24368;52.156;20.788;2023-01-26T08:57:29;27.30;;;19.50;;
38611;SDS011;24368;52.156;20.788;2023-01-26T09:02:31;22.90;;;18.90;;
38611;SDS011;24368;52.156;20.788;2023-01-26T09:07:32;26.60;;;18.00;;
38611;SDS011;24368;52.156;20.788;2023-01-26T09:12:34;19.50;;;15.90;;
38611;SDS011;24368;52.156;20.788;2023-01-26T09:17:36;23.10;;;17.40;;
38611;SDS011;24368;52.156;20.788;2023-01-26T09:22:38;19.50;;;16.00;;
38611;SDS011;24368;52.156;20.788;2023-01-26T09:27:39;23.00;;;16.40;;
38611;SDS011;24368;52.156;20.788;2023-01-26T09:32:41;21.00;;;16.10;;
38611;SDS011;24368;52.156;20.788;2023-01-26T09:37:43;19.30;;;14.80;;
38611;SDS011;24368;52.156;20.788;2023-01-26T09:53:39;18.10;;;15.00;;
38611;SDS011;24368;52.156;20.788;2023-01-26T10:04:23;19.60;;;14.70;;
38611;SDS011;24368;52.156;20.788;2023-01-26T10:09:34;19.50;;;14.70;;
38611;SDS011;24368;52.156;20.788;2023-01-26T10:15:23;17.30;;;14.20;;
38611;SDS011;24368;52.156;20.788;2023-01-26T10:25:26;18.40;;;14.40;;
38611;SDS011;24368;52.156;20.788;2023-01-26T10:30:33;17.80;;;13.50;;
38611;SDS011;24368;52.156;20.788;2023-01-26T10:35:35;17.70;;;13.20;;
38611;SDS011;24368;52.156;20.788;2023-01-26T10:40:43;13.70;;;11.70;;
38611;SDS011;24368;52.156;20.788;2023-01-26T10:45:46;17.60;;;14.30;;
38611;SDS011;24368;52.156;20.788;2023-01-26T10:50:48;19.60;;;13.10;;
38611;SDS011;24368;52.156;20.788;2023-01-26T10:56:00;17.70;;;13.70;;
38611;SDS011;24368;52.156;20.788;2023-01-26T11:01:05;16.40;;;13.00;;
38611;SDS011;24368;52.156;20.788;2023-01-26T11:06:16;17.10;;;13.90;;
38611;SDS011;24368;52.156;20.788;2023-01-26T11:11:25;13.30;;;11.90;;
38611;SDS011;24368;52.156;20.788;2023-01-26T11:16:30;17.30;;;12.20;;
38611;SDS011;24368;52.156;20.788;2023-01-26T11:37:46;16.60;;;12.80;;
38611;SDS011;24368;52.156;20.788;2023-01-26T11:43:14;15.40;;;13.00;;
38611;SDS011;24368;52.156;20.788;2023-01-26T11:48:50;17.00;;;15.10;;
38611;SDS011;24368;52.156;20.788;2023-01-26T11:53:57;18.10;;;15.10;;
38611;SDS011;24368;52.156;20.788;2023-01-26T12:04:31;14.90;;;13.30;;
38611;SDS011;24368;52.156;20.788;2023-01-26T12:09:39;16.00;;;13.50;;
38611;SDS011;24368;52.156;20.788;2023-01-26T12:14:46;15.50;;;13.50;;
38611;SDS011;24368;52.156;20.788;2023-01-26T12:20:02;16.80;;;15.00;;
38611;SDS011;24368;52.156;20.788;2023-01-26T12:41:01;18.00;;;15.70;;
38611;SDS011;24368;52.156;20.788;2023-01-26T12:46:11;17.30;;;15.40;;
38611;SDS011;24368;52.156;20.788;2023-01-26T12:51:18;19.90;;;16.30;;
38611;SDS011;24368;52.156;20.788;2023-01-26T13:01:38;19.50;;;15.60;;
38611;SDS011;24368;52.156;20.788;2023-01-26T13:06:42;21.20;;;16.90;;
38611;SDS011;24368;52.156;20.788;2023-01-26T13:16:57;22.60;;;17.70;;
38611;SDS011;24368;52.156;20.788;2023-01-26T13:37:59;19.90;;;16.50;;
38611;SDS011;24368;52.156;20.788;2023-01-26T13:43:26;18.70;;;15.40;;
38611;SDS011;24368;52.156;20.788;2023-01-26T13:48:50;22.10;;;16.30;;
38611;SDS011;24368;52.156;20.788;2023-01-26T13:54:09;24.30;;;17.50;;
38611;SDS011;24368;52.156;20.788;2023-01-26T13:59:14;25.50;;;18.90;;
38611;SDS011;24368;52.156;20.788;2023-01-26T14:04:21;22.90;;;16.60;;
38611;SDS011;24368;52.156;20.788;2023-01-26T14:09:25;27.00;;;19.70;;
38611;SDS011;24368;52.156;20.788;2023-01-26T14:14:32;27.40;;;19.50;;
38611;SDS011;24368;52.156;20.788;2023-01-26T14:19:40;26.50;;;19.20;;
38611;SDS011;24368;52.156;20.788;2023-01-26T14:24:46;28.00;;;20.80;;
38611;SDS011;24368;52.156;20.788;2023-01-26T14:29:49;25.90;;;20.70;;
38611;SDS011;24368;52.156;20.788;2023-01-26T14:34:52;26.20;;;18.50;;
38611;SDS011;24368;52.156;20.788;2023-01-26T14:40:13;28.60;;;19.80;;
38611;SDS011;24368;52.156;20.788;2023-01-26T14:45:30;26.20;;;18.30;;
38611;SDS011;24368;52.156;20.788;2023-01-26T14:50:33;34.90;;;20.00;;
38611;SDS011;24368;52.156;20.788;2023-01-26T14:55:36;31.70;;;19.10;;
38611;SDS011;24368;52.156;20.788;2023-01-26T15:00:38;31.40;;;21.80;;
38611;SDS011;24368;52.156;20.788;2023-01-26T15:05:43;37.30;;;23.40;;
38611;SDS011;24368;52.156;20.788;2023-01-26T15:16:03;29.50;;;21.00;;
38611;SDS011;24368;52.156;20.788;2023-01-26T15:21:18;31.10;;;21.90;;
38611;SDS011;24368;52.156;20.788;2023-01-26T15:26:26;28.70;;;20.80;;
38611;SDS011;24368;52.156;20.788;2023-01-26T15:31:32;27.30;;;20.40;;
38611;SDS011;24368;52.156;20.788;2023-01-26T15:36:46;32.50;;;23.20;;
38611;SDS011;24368;52.156;20.788;2023-01-26T15:42:11;29.80;;;21.10;;
38611;SDS011;24368;52.156;20.788;2023-01-26T15:47:15;33.00;;;23.30;;
38611;SDS011;24368;52.156;20.788;2023-01-26T15:52:18;29.80;;;21.70;;
38611;SDS011;24368;52.156;20.788;2023-01-26T15:57:23;31.90;;;22.20;;
38611;SDS011;24368;52.156;20.788;2023-01-26T16:02:26;31.60;;;22.30;;
38611;SDS011;24368;52.156;20.788;2023-01-26T16:07:28;29.00;;;21.80;;
38611;SDS011;24368;52.156;20.788;2023-01-26T16:12:30;30.40;;;22.10;;
38611;SDS011;24368;52.156;20.788;2023-01-26T16:17:32;28.70;;;22.40;;
38611;SDS011;24368;52.156;20.788;2023-01-26T16:22:34;27.90;;;21.20;;
38611;SDS011;24368;52.156;20.788;2023-01-26T16:27:36;30.00;;;22.40;;
38611;SDS011;24368;52.156;20.788;2023-01-26T16:32:37;29.30;;;21.60;;
38611;SDS011;24368;52.156;20.788;2023-01-26T16:37:39;27.40;;;20.90;;
38611;SDS011;24368;52.156;20.788;2023-01-26T16:42:43;24.60;;;18.50;;
38611;SDS011;24368;52.156;20.788;2023-01-26T16:47:48;31.90;;;21.60;;
38611;SDS011;24368;52.156;20.788;2023-01-26T16:52:52;26.90;;;20.40;;
38611;SDS011;24368;52.156;20.788;2023-01-26T16:57:54;26.30;;;20.80;;
38611;SDS011;24368;52.156;20.788;2023-01-26T17:02:55;29.40;;;21.00;;
38611;SDS011;24368;52.156;20.788;2023-01-26T17:07:57;29.40;;;21.70;;
38611;SDS011;24368;52.156;20.788;2023-01-26T17:12:59;24.10;;;20.40;;
38611;SDS011;24368;52.156;20.788;2023-01-26T17:18:01;26.70;;;20.80;;
38611;SDS011;24368;52.156;20.788;2023-01-26T17:23:03;28.80;;;21.20;;
38611;SDS011;24368;52.156;20.788;2023-01-26T17:28:06;27.40;;;21.40;;
38611;SDS011;24368;52.156;20.788;2023-01-26T17:33:07;27.00;;;22.60;;
38611;SDS011;24368;52.156;20.788;2023-01-26T17:38:09;29.40;;;21.30;;
38611;SDS011;24368;52.156;20.788;2023-01-26T17:43:11;28.00;;;21.20;;
38611;SDS011;24368;52.156;20.788;2023-01-26T17:48:13;30.80;;;24.50;;
38611;SDS011;24368;52.156;20.788;2023-01-26T17:53:15;24.90;;;21.50;;
38611;SDS011;24368;52.156;20.788;2023-01-26T17:58:17;26.60;;;19.20;;
38611;SDS011;24368;52.156;20.788;2023-01-26T18:03:19;25.80;;;18.50;;
38611;SDS011;24368;52.156;20.788;2023-01-26T18:08:26;27.00;;;20.00;;
38611;SDS011;24368;52.156;20.788;2023-01-26T18:13:29;27.30;;;18.90;;
38611;SDS011;24368;52.156;20.788;2023-01-26T18:18:32;23.30;;;18.70;;
38611;SDS011;24368;52.156;20.788;2023-01-26T18:23:34;26.90;;;19.50;;
38611;SDS011;24368;52.156;20.788;2023-01-26T18:28:37;23.20;;;18.40;;
38611;SDS011;24368;52.156;20.788;2023-01-26T18:33:40;23.40;;;16.30;;
38611;SDS011;24368;52.156;20.788;2023-01-26T18:38:43;21.10;;;14.30;;
38611;SDS011;24368;52.156;20.788;2023-01-26T18:43:53;21.10;;;15.40;;
38611;SDS011;24368;52.156;20.788;2023-01-26T18:48:55;21.50;;;15.40;;
38611;SDS011;24368;52.156;20.788;2023-01-26T18:54:01;19.90;;;15.20;;
38611;SDS011;24368;52.156;20.788;2023-01-26T18:59:04;21.80;;;17.50;;
38611;SDS011;24368;52.156;20.788;2023-01-26T19:04:09;21.10;;;16.50;;
38611;SDS011;24368;52.156;20.788;2023-01-26T19:09:12;19.90;;;15.80;;
38611;SDS011;24368;52.156;20.788;2023-01-26T19:14:14;17.40;;;13.50;;
38611;SDS011;24368;52.156;20.788;2023-01-26T19:19:16;19.60;;;15.40;;
38611;SDS011;24368;52.156;20.788;2023-01-26T19:24:18;21.30;;;16.30;;
38611;SDS011;24368;52.156;20.788;2023-01-26T19:29:19;22.90;;;16.50;;
38611;SDS011;24368;52.156;20.788;2023-01-26T19:34:21;20.80;;;17.10;;
38611;SDS011;24368;52.156;20.788;2023-01-26T19:39:23;23.40;;;16.50;;
38611;SDS011;24368;52.156;20.788;2023-01-26T19:44:25;21.00;;;16.40;;
38611;SDS011;24368;52.156;20.788;2023-01-26T19:49:26;18.70;;;15.50;;
38611;SDS011;24368;52.156;20.788;2023-01-26T19:54:28;23.60;;;16.60;;
38611;SDS011;24368;52.156;20.788;2023-01-26T19:59:30;26.00;;;17.00;;
38611;SDS011;24368;52.156;20.788;2023-01-26T20:04:32;22.90;;;16.80;;
38611;SDS011;24368;52.156;20.788;2023-01-26T20:09:34;23.10;;;17.30;;
38611;SDS011;24368;52.156;20.788;2023-01-26T20:14:36;22.10;;;15.50;;
38611;SDS011;24368;52.156;20.788;2023-01-26T20:19:38;21.90;;;17.20;;
38611;SDS011;24368;52.156;20.788;2023-01-26T20:24:40;24.90;;;17.80;;
38611;SDS011;24368;52.156;20.788;2023-01-26T20:29:42;25.10;;;18.60;;
38611;SDS011;24368;52.156;20.788;2023-01-26T20:34:43;26.10;;;19.30;;
38611;SDS011;24368;52.156;20.788;2023-01-26T20:39:46;24.90;;;18.00;;
38611;SDS011;24368;52.156;20.788;2023-01-26T20:44:48;24.60;;;18.30;;
38611;SDS011;24368;52.156;20.788;2023-01-26T20:49:50;22.60;;;17.90;;
38611;SDS011;24368;52.156;20.788;2023-01-26T20:54:53;26.50;;;18.30;;
38611;SDS011;24368;52.156;20.788;2023-01-26T20:59:55;26.40;;;18.20;;
38611;SDS011;24368;52.156;20.788;2023-01-26T21:04:56;23.10;;;17.80;;
38611;SDS011;24368;52.156;20.788;2023-01-26T21:09:58;20.80;;;17.30;;
38611;SDS011;24368;52.156;20.788;2023-01-26T21:15:00;21.20;;;15.90;;
38611;SDS011;24368;52.156;20.788;2023-01-26T21:20:02;21.70;;;15.50;;
38611;SDS011;24368;52.156;20.788;2023-01-26T21:25:04;23.40;;;17.10;;
38611;SDS011;24368;52.156;20.788;2023-01-26T21:30:07;23.70;;;17.40;;
38611;SDS011;24368;52.156;20.788;2023-01-26T21:35:09;23.70;;;18.00;;
38611;SDS011;24368;52.156;20.788;2023-01-26T21:40:14;24.30;;;18.30;;
38611;SDS011;24368;52.156;20.788;2023-01-26T21:45:16;26.80;;;19.10;;
38611;SDS011;24368;52.156;20.788;2023-01-26T21:50:36;25.70;;;19.80;;
38611;SDS011;24368;52.156;20.788;2023-01-26T21:55:56;27.90;;;19.30;;
38611;SDS011;24368;52.156;20.788;2023-01-26T22:01:07;25.70;;;19.40;;
38611;SDS011;24368;52.156;20.788;2023-01-26T22:06:10;25.50;;;19.30;;
38611;SDS011;24368;52.156;20.788;2023-01-26T22:11:12;26.30;;;18.90;;
38611;SDS011;24368;52.156;20.788;2023-01-26T22:16:15;25.60;;;19.10;;
38611;SDS011;24368;52.156;20.788;2023-01-26T22:21:17;27.00;;;20.00;;
38611;SDS011;24368;52.156;20.788;2023-01-26T22:26:19;31.40;;;22.10;;
38611;SDS011;24368;52.156;20.788;2023-01-26T22:31:24;28.00;;;21.00;;
38611;SDS011;24368;52.156;20.788;2023-01-26T22:36:29;31.60;;;21.40;;
38611;SDS011;24368;52.156;20.788;2023-01-26T22:41:31;28.40;;;21.00;;
38611;SDS011;24368;52.156;20.788;2023-01-26T22:46:34;27.10;;;19.40;;
38611;SDS011;24368;52.156;20.788;2023-01-26T22:51:37;30.90;;;20.70;;
38611;SDS011;24368;52.156;20.788;2023-01-26T22:56:39;25.40;;;19.20;;
38611;SDS011;24368;52.156;20.788;2023-01-26T23:01:40;27.90;;;20.50;;
38611;SDS011;24368;52.156;20.788;2023-01-26T23:06:43;24.30;;;18.70;;
38611;SDS011;24368;52.156;20.788;2023-01-26T23:11:44;24.50;;;18.70;;
38611;SDS011;24368;52.156;20.788;2023-01-26T23:16:46;26.00;;;19.80;;
38611;SDS011;24368;52.156;20.788;2023-01-26T23:21:48;29.60;;;21.30;;
38611;SDS011;24368;52.156;20.788;2023-01-26T23:26:49;23.00;;;17.80;;
38611;SDS011;24368;52.156;20.788;2023-01-26T23:31:51;24.90;;;19.10;;
38611;SDS011;24368;52.156;20.788;2023-01-26T23:36:53;26.60;;;20.20;;
38611;SDS011;24368;52.156;20.788;2023-01-26T23:41:55;28.20;;;21.60;;
38611;SDS011;24368;52.156;20.788;2023-01-26T23:46:57;25.10;;;17.50;;
38611;SDS011;24368;52.156;20.788;2023-01-26T23:51:59;23.50;;;19.50;;
38611;SDS011;24368;52.156;20.788;2023-01-26T23:57:00;24.50;;;19.70;;
